This is the latest recevied weather packets stored in our database for station/object VE3ZEB-1. If no packets are shown the sender has not sent any weather packets the latest 10 day(s).
| Time | Temp. | Humidity | Pressure | Rain* | Wind** | Luminosity | Snow |
|---|---|---|---|---|---|---|---|
| 1777620620 | 2.22° C | 75% | 679.2 hPa | 0 mm | - | 0 W/m² | - |
| 1777619420 | 2.22° C | 75% | 679.2 hPa | 0 mm | - | 0 W/m² | - |
| 1777617021 | 2.22° C | 75% | 679.2 hPa | 0 mm | - | 0 W/m² | - |
| 1777613422 | 1.11° C | 75% | 679.1 hPa | 0 mm | - | 0 W/m² | - |
| 1777612822 | 1.11° C | 75% | 679.1 hPa | 0 mm | - | 0 W/m² | - |
| 1777608023 | 1.67° C | 73% | 679.2 hPa | 0 mm | - | 0 W/m² | - |
| 1777606823 | 2.22° C | 72% | 679.2 hPa | 0 mm | - | 0 W/m² | - |
| 1777606223 | 2.22° C | 72% | 679.2 hPa | 0 mm | - | 0 W/m² | - |
| 1777605024 | 2.78° C | 72% | 679.2 hPa | 0 mm | - | 0 W/m² | - |
| 1777604444 | 2.78° C | 71% | 679.2 hPa | 0 mm | - | 0 W/m² | - |
| 1777600824 | 3.89° C | 67% | 679.3 hPa | 0 mm | - | 0 W/m² | - |
| 1777597825 | 5.56° C | 63% | 679.3 hPa | 0 mm | - | 0 W/m² | - |
| 1777596625 | 6.11° C | 61% | 679.4 hPa | 0 mm | - | 0 W/m² | - |
| 1777593026 | 8.33° C | 55% | 679.4 hPa | 0 mm | - | 23 W/m² | - |
| 1777590027 | 8.89° C | 53% | 679.5 hPa | 0 mm | - | 95 W/m² | - |
| 1777585228 | 10° C | 51% | 679.5 hPa | 0 mm | - | 179 W/m² | - |
| 1777584028 | 11.11° C | 51% | 679.5 hPa | 0 mm | - | 134 W/m² | - |
| 1777571451 | 12.78° C | 58% | 679.6 hPa | 0 mm | - | 540 W/m² | - |
| 1777568452 | 12.22° C | 63% | 679.6 hPa | 0 mm | - | 195 W/m² | - |
| 1777567832 | 12.22° C | 63% | 679.6 hPa | 0 mm | - | 199 W/m² | - |
| 1777561818 | 11.11° C | 67% | 679.5 hPa | 0 mm | - | 301 W/m² | - |
| 1777561258 | 10.56° C | 69% | 679.5 hPa | 0 mm | - | 616 W/m² | - |
| 1777558219 | 7.78° C | 75% | 679.3 hPa | 0 mm | - | 292 W/m² | - |
| 1777545642 | 3.33° C | 87% | 679.2 hPa | 0 mm | - | 7 W/m² | - |
| 1777545022 | 3.33° C | 87% | 679.2 hPa | 0 mm | - | 3 W/m² | - |
* Rain latest hour (hover to see other rain measurements)
** Current wind speed in m/s (hover to see current wind gust speed)